Date,TemperatureHighF,TemperatureAvgF,TemperatureLowF,DewpointHighF,DewpointAvgF,DewpointLowF,HumidityHigh,HumidityAvg,HumidityLow,PressureMaxIn,PressureMinIn,WindSpeedMaxMPH,WindSpeedAvgMPH,GustSpeedMaxMPH,PrecipitationSumIn
2013-1-1,28.6,22.1,10.0,28.0,11.1,-0.8,100,64,41,29.51,29.25,24,5,32,0.00
2013-1-2,19.6,10.5,1.4,4.8,-2.0,-10.3,71,57,42,29.70,29.49,22,4,30,0.00
2013-1-3,21.3,10.0,-0.1,2.4,-3.1,-10.3,69,55,42,29.74,29.57,11,1,20,0.00
2013-1-4,35.0,20.7,1.7,26.8,15.2,-2.4,95,80,65,29.63,29.36,8,0,14,0.00
2013-1-5,33.2,27.2,14.1,27.7,17.0,0.0,86,66,49,29.91,29.37,25,4,41,0.01
2013-1-6,34.0,22.4,11.5,24.5,18.1,0.0,96,84,67,29.91,29.56,3,0,7,0.00
2013-1-7,29.6,22.4,13.6,24.4,15.8,7.8,100,77,47,30.04,29.58,10,1,15,0.00
2013-1-8,39.2,27.4,15.0,25.7,21.6,0.0,96,79,57,30.01,29.83,14,1,18,0.00
2013-1-9,33.4,26.8,13.1,31.1,24.5,12.6,100,91,80,30.06,29.53,7,0,9,0.00
2013-1-10,41.7,36.8,28.1,35.1,27.8,0.0,100,71,27,30.17,29.53,35,9,50,0.00
2013-1-11,36.3,29.9,20.4,31.4,23.4,-42.7,100,78,3,30.18,29.90,8,0,16,0.00
2013-1-12,40.6,36.1,31.1,40.6,36.1,29.4,100,100,100,29.94,29.76,5,0,9,0.06
2013-1-13,41.3,38.2,35.7,41.3,38.2,35.7,100,100,100,29.81,29.59,6,0,10,0.01
2013-1-14,56.3,42.2,34.9,54.7,36.8,-20.3,100,84,6,29.87,29.48,14,2,25,0.01
2013-1-15,36.4,31.2,26.1,28.0,24.8,0.0,94,77,65,29.97,29.83,6,0,11,0.00
2013-3-25,41.9,39.7,35.7,31.2,28.7,0.0,73,65,62,29.32,29.25,11,2,16,0.00
2013-3-26,46.5,38.4,30.9,29.1,25.6,-36.1,82,62,4,29.40,29.24,17,5,24,0.00
2013-3-27,44.7,37.2,29.9,41.7,30.5,-52.8,100,79,1,29.53,29.37,21,4,23,0.07
2013-3-28,49.0,40.2,34.7,45.7,20.4,-55.2,100,64,1,29.64,29.52,12,2,15,0.01
2013-3-29,51.7,43.7,35.4,49.8,15.6,-55.2,100,55,1,29.68,29.61,13,3,23,0.00
2013-3-30,53.1,41.8,30.7,43.4,18.9,-52.9,100,49,2,29.75,29.64,15,2,20,0.00
2013-3-31,53.2,40.6,23.9,45.4,21.9,-59.8,100,64,1,29.77,29.50,16,2,19,0.00
2013-4-1,55.0,40.5,32.2,54.6,27.5,-57.4,100,76,1,29.56,29.13,16,4,23,0.68
2013-4-2,36.3,30.0,25.0,33.2,-6.0,-62.7,100,30,1,29.47,29.28,15,4,24,0.00
2013-4-3,39.6,33.0,27.3,29.4,-2.1,-33.7,100,24,5,29.72,29.45,27,6,39,0.00
2013-4-4,52.1,39.1,28.5,28.3,4.2,-26.0,41,25,5,29.87,29.61,16,3,33,0.00
2013-4-5,56.6,43.1,34.5,39.1,-2.3,-55.2,100,22,1,29.66,29.31,21,4,32,0.00
2013-4-6,39.0,31.2,24.3,16.0,-0.5,-62.5,40,27,1,30.00,29.45,24,7,35,0.00
2013-4-7,47.1,37.1,23.3,44.9,-0.4,-63.4,100,35,1,30.00,29.60,15,3,22,0.00
2013-4-8,55.3,46.6,36.5,49.0,14.9,-51.8,100,46,1,29.80,29.55,18,4,22,0.00
2013-4-9,48.9,41.1,37.2,45.2,33.4,-39.7,100,80,4,29.79,29.56,10,1,12,0.27
2013-4-10,54.9,45.4,38.7,54.9,38.7,-45.5,100,84,1,29.69,29.55,13,1,14,0.23
2013-4-11,49.2,43.0,37.0,43.5,21.6,-52.8,100,53,1,29.86,29.53,22,4,26,0.04
2013-4-12,42.1,33.3,31.7,34.5,7.1,-40.5,100,43,3,29.93,29.57,13,1,16,0.12
2013-4-13,46.4,37.9,31.0,46.4,26.2,-51.4,100,76,1,29.65,29.47,8,1,11,0.27
2013-4-14,49.3,41.3,34.8,49.3,20.6,-51.5,100,65,1,29.85,29.54,14,2,22,0.08
2013-4-15,56.8,42.9,31.2,50.2,19.0,-55.8,100,58,1,30.07,29.76,11,1,17,0.00
2013-4-16,56.2,44.9,37.6,55.5,36.4,-43.6,100,84,1,30.08,29.79,13,3,21,0.00
2013-4-23,45.7,41.0,34.1,45.7,26.4,-52.7,100,71,1,30.23,29.88,9,2,17,0.00
2013-4-24,66.0,48.9,40.4,66.0,38.7,-43.0,100,78,1,30.00,29.45,17,4,25,0.01
2013-4-25,59.0,51.8,43.6,52.9,23.4,-33.8,100,45,2,29.94,29.42,21,4,27,0.05
2013-4-26,59.8,47.5,34.2,46.4,13.8,-54.0,100,41,1,30.11,29.87,10,1,13,0.00
2013-4-27,63.7,48.6,33.6,52.9,22.5,-47.6,100,52,1,30.09,29.97,9,1,16,0.00
2013-4-28,67.1,50.1,35.3,53.9,23.5,-53.2,100,52,1,30.01,29.91,15,1,18,0.00
2013-4-29,66.2,51.8,36.7,63.9,20.8,-48.2,100,51,1,29.95,29.87,10,1,16,0.00
2013-4-30,70.8,53.8,35.9,59.5,26.8,-49.3,100,48,1,30.05,29.91,10,1,14,0.00
2013-5-1,74.1,56.4,35.6,54.3,32.1,-51.1,100,51,1,30.13,30.01,12,1,14,0.00
2013-5-2,69.9,56.4,41.2,61.7,24.3,-45.7,100,49,1,30.19,30.09,13,2,17,0.00
2013-5-3,67.9,51.4,35.6,63.0,21.6,-47.4,100,53,1,30.23,30.04,12,1,17,0.00
2013-5-4,67.9,50.4,39.0,60.1,28.1,-50.6,100,63,1,30.08,29.97,11,1,15,0.00
2013-5-5,62.0,49.5,40.1,57.0,25.5,-50.6,100,62,1,30.03,29.91,6,1,15,0.00
2013-5-6,68.7,51.1,36.2,64.0,30.0,-39.9,100,63,1,29.94,29.83,11,1,15,0.00
2013-5-7,76.5,58.1,44.2,71.6,31.5,-39.7,100,56,1,29.86,29.76,11,1,19,0.00
2013-5-8,75.1,61.0,46.6,74.7,46.3,-36.4,100,77,1,29.91,29.79,15,2,18,0.00
2013-5-9,62.8,56.4,52.1,62.4,50.9,-3.0,100,85,16,29.84,29.57,8,1,11,0.36
2013-5-10,75.2,60.1,51.2,74.4,49.5,-31.9,100,76,3,29.63,29.57,7,1,15,0.19
2013-5-11,65.1,56.9,51.1,65.0,45.5,-21.4,100,77,3,29.62,29.35,8,1,13,0.25
2013-5-12,67.4,58.5,48.4,66.2,45.2,-47.0,100,80,1,29.38,29.20,11,1,18,0.16
2013-5-13,55.5,48.1,40.9,48.7,17.9,-49.8,100,46,1,29.68,29.30,17,2,23,0.00
2013-5-14,55.2,47.5,38.3,46.2,13.3,-53.3,100,40,1,29.69,29.61,17,4,23,0.00
2013-5-15,63.2,50.2,36.8,54.7,26.1,-51.1,100,58,1,29.68,29.35,19,2,24,0.22
2013-5-16,75.5,59.7,47.6,67.1,40.6,-28.9,100,64,2,29.46,29.24,18,3,21,0.01
2013-5-17,62.6,55.0,47.0,56.7,26.8,-48.5,100,52,1,29.87,29.36,20,5,25,0.00
2013-5-18,68.3,52.4,40.2,60.4,32.2,-46.3,100,66,1,30.01,29.81,11,1,15,0.01
2013-5-19,66.3,52.0,43.1,66.3,43.9,-41.8,100,81,1,30.05,29.93,10,1,13,0.08
2013-5-20,73.2,58.5,48.6,73.2,41.7,-37.9,100,67,1,29.95,29.59,15,1,18,0.41
2013-5-21,65.9,52.0,48.7,56.5,42.1,-37.9,100,80,3,29.74,29.58,9,1,14,0.12
2013-5-22,58.0,51.6,47.6,58.0,47.7,-25.8,100,91,3,29.74,29.59,6,0,10,0.20
2013-5-23,64.9,56.5,48.4,64.9,49.1,-20.2,100,86,3,29.65,29.46,9,1,12,0.12
2013-5-24,67.4,59.0,47.6,67.3,48.1,-23.0,100,79,3,29.53,29.31,18,4,27,0.94
2013-5-25,50.3,45.8,43.9,47.7,16.4,-31.3,100,53,3,29.53,29.35,22,8,34,0.41
2013-5-26,52.1,46.3,43.0,51.8,19.3,-48.2,100,51,1,29.65,29.30,23,6,29,0.11
2013-5-27,65.4,53.1,38.8,55.5,28.1,-48.9,100,52,1,29.82,29.60,19,4,30,0.00
2013-5-28,72.9,57.3,39.5,59.2,30.8,-49.5,100,49,1,29.90,29.77,10,1,19,0.00
2013-5-29,58.9,52.3,47.4,55.6,31.2,-44.8,100,64,3,29.88,29.67,5,0,11,0.07
2013-5-30,85.3,69.3,54.4,79.6,47.1,-29.3,100,65,1,29.71,29.64,14,2,24,0.00
2013-5-31,92.3,76.8,57.9,86.8,44.6,-25.8,100,54,1,29.73,29.57,12,1,16,0.00
2013-6-1,94.5,80.8,67.1,91.2,49.6,-34.6,100,54,1,29.60,29.48,14,1,20,0.00
2013-6-2,89.3,76.5,65.9,89.3,69.1,-13.6,100,86,2,29.50,29.33,16,2,24,0.21
2013-6-3,79.8,69.5,62.4,79.8,62.4,-30.9,100,87,1,29.48,29.37,10,1,18,0.01
2013-6-4,70.9,57.4,50.5,63.0,32.4,-44.1,100,66,1,29.71,29.39,21,4,30,0.00
2013-6-5,72.7,60.1,48.4,64.2,28.9,-45.7,100,49,1,29.84,29.66,13,2,16,0.00
2013-6-6,73.3,59.9,48.0,63.7,31.9,-42.8,100,52,1,29.89,29.78,11,1,14,0.00
2013-6-7,60.8,55.0,50.2,60.2,46.9,-43.0,100,84,1,29.86,29.66,9,1,12,0.46
2013-6-8,68.1,58.6,50.9,68.1,34.5,-26.4,100,58,3,29.72,29.35,17,3,24,0.41
2013-6-9,74.2,65.3,57.2,73.7,52.1,-33.2,100,81,1,29.81,29.58,12,1,19,0.00
2013-6-10,73.0,63.3,52.4,73.0,48.0,-36.1,100,76,1,29.90,29.74,9,1,13,0.00
2013-6-11,61.2,54.7,53.3,58.2,52.0,-24.5,100,95,3,29.77,29.25,11,1,18,0.70
2013-6-12,59.1,56.2,53.2,59.1,46.1,-41.8,100,81,1,29.44,29.20,15,6,25,0.09
2013-6-13,71.2,60.2,49.4,71.2,41.1,-41.8,100,70,1,29.46,29.40,10,0,14,0.00
2013-6-14,78.5,62.6,52.8,72.1,41.6,-35.4,100,67,1,29.44,29.32,0,0,0,0.00
2013-6-15,74.1,64.6,52.4,63.5,35.2,-44.5,100,47,1,29.57,29.36,0,0,0,0.00
2013-6-16,77.7,64.5,50.6,73.1,40.5,-42.4,100,61,1,29.57,29.38,0,0,0,0.00
2013-6-17,79.4,65.1,55.9,76.4,45.3,-34.9,100,68,1,29.55,29.38,0,0,0,0.12
2013-6-18,66.4,60.2,53.6,65.9,47.3,-39.9,100,78,1,29.66,29.50,0,0,0,0.01
2013-6-19,73.0,62.3,51.0,66.6,35.8,-41.8,100,55,1,29.80,29.60,0,0,0,0.00
2013-6-20,78.0,64.2,47.4,67.9,32.9,-44.8,100,50,1,29.93,29.73,0,0,0,0.00
2013-6-21,82.7,65.5,50.9,76.4,43.3,-41.1,100,62,1,29.90,29.85,0,0,0,0.00
2013-6-22,84.3,69.0,57.4,82.4,59.1,-27.9,100,82,1,29.89,29.78,0,0,0,0.04
2013-6-23,80.3,70.7,65.5,79.8,58.2,-16.7,100,78,3,29.81,29.63,0,0,0,0.13
2013-6-24,89.0,76.7,65.8,88.9,53.8,-24.0,100,68,1,29.68,29.50,0,0,0,0.01
2013-6-25,89.9,75.2,66.6,89.7,68.2,-17.9,100,88,2,29.56,29.38,0,0,0,0.97
2013-6-26,75.6,67.5,59.2,75.6,64.6,-1.8,100,94,5,29.56,29.38,0,0,0,1.14
2013-6-27,66.7,60.2,55.7,66.7,55.4,-10.5,100,90,5,29.56,29.49,0,0,0,0.10
2013-6-28,63.1,59.4,56.3,63.1,58.7,-10.5,100,99,12,29.54,29.22,0,0,0,1.97
2013-6-29,74.7,67.8,63.0,74.7,66.8,0.0,100,98,26,29.35,29.22,0,0,0,0.01
2013-6-30,77.5,69.5,61.9,77.4,66.8,-4.0,100,94,5,29.60,29.28,0,0,0,0.46
2013-7-1,73.5,69.1,64.6,73.5,62.3,-38.0,100,87,3,29.78,29.55,0,0,0,0.08
2013-7-2,70.4,60.8,56.2,69.8,60.6,0.0,100,100,100,29.90,29.74,0,0,0,0.39
2013-7-3,81.2,67.1,58.8,81.2,61.9,-12.3,100,89,5,29.90,29.75,0,0,0,0.02
2013-7-4,89.0,77.6,68.1,89.0,68.7,-26.0,100,85,1,29.84,29.72,0,0,0,0.00
2013-7-5,92.9,80.4,69.4,91.6,63.0,-23.9,100,78,1,29.79,29.67,0,0,0,0.00
2013-7-6,86.8,78.5,70.8,86.6,69.7,-33.7,100,86,1,29.71,29.61,0,0,0,0.00
2013-7-7,85.3,76.3,64.3,85.3,65.9,-33.7,100,81,1,29.66,29.59,0,0,0,0.00
2013-7-8,81.2,69.5,64.3,74.5,62.0,-7.5,100,83,8,29.70,29.58,0,0,0,0.18
2013-9-18,72.2,64.0,51.1,68.8,29.3,-41.0,100,41,1,29.90,29.77,0,0,0,0.00
2013-9-19,76.1,60.5,45.4,70.7,36.7,-34.9,100,62,1,29.80,29.69,0,0,0,0.00
2013-9-20,78.9,61.4,46.8,72.1,36.2,-35.5,100,58,1,29.78,29.69,0,0,0,0.00
2013-9-21,68.2,61.1,53.1,68.2,38.6,-36.7,100,61,1,29.72,29.44,0,0,0,0.01
2013-9-22,71.3,63.1,51.0,71.3,50.9,-43.0,100,81,1,29.47,29.25,0,0,0,0.61
2013-9-23,55.6,49.7,45.2,54.4,37.2,-44.2,100,77,2,29.62,29.39,0,0,0,0.00
2013-9-24,51.5,48.0,45.2,51.5,32.7,-48.5,100,74,1,29.62,29.51,0,0,0,0.00